Time;durP1;ratioP1;P1;durP2;ratioP2;P2;SDS_P1;SDS_P2;PMS_P1;PMS_P2;Temp;Humidity;BMP_temperature;BMP_pressure;BME280_temperature;BME280_humidity;BME280_pressure;Samples;Min_cycle;Max_cycle;Signal;HPM_P1;HPM_P2
2023/12/02 00:00:32;;;;;;;0.32;0.32;;;;;;;7.57;95.56;101046.09;10425266;28;20052;-85
2023/12/02 00:05:34;;;;;;;0.75;0.60;;;;;;;6.59;97.62;101036.88;10440350;28;20049;-85
2023/12/02 00:10:36;;;;;;;1.20;1.10;;;;;;;6.74;97.39;101043.50;10400639;28;20512;-85
2023/12/02 00:15:38;;;;;;;0.57;0.50;;;;;;;6.74;97.87;101043.50;10446746;28;20091;-85
2023/12/02 00:20:40;;;;;;;0.10;0.10;;;;;;;7.75;97.89;101040.81;10456881;28;20048;-85
2023/12/02 00:25:42;;;;;;;0.32;0.25;;;;;;;7.45;97.54;101042.22;10457555;28;20131;-85
2023/12/02 00:30:43;;;;;;;0.30;0.30;;;;;;;7.15;98.83;101036.69;10458343;28;20087;-85
2023/12/02 00:35:45;;;;;;;1.40;1.25;;;;;;;7.68;98.42;101028.59;10423552;28;20099;-86
2023/12/02 00:40:47;;;;;;;0.10;0.10;;;;;;;6.57;97.46;101040.19;10441148;28;20581;-86
2023/12/02 00:45:49;;;;;;;0.40;0.40;;;;;;;7.16;100.00;101035.91;10423074;28;20148;-85
2023/12/02 00:50:51;;;;;;;0.50;0.47;;;;;;;6.64;98.68;101047.31;10401389;28;20049;-85
2023/12/02 00:55:52;;;;;;;0.75;0.75;;;;;;;7.07;98.94;101036.41;10456363;28;20439;-85
2023/12/02 01:00:54;;;;;;;0.00;0.00;;;;;;;7.33;97.39;101035.72;10439141;28;20052;-85
2023/12/02 01:05:56;;;;;;;0.55;0.55;;;;;;;7.23;96.29;101037.91;10438879;28;20080;-85
2023/12/02 01:10:58;;;;;;;1.63;0.68;;;;;;;7.81;93.91;101035.94;10441724;28;20492;-83
2023/12/02 01:16:00;;;;;;;0.00;0.00;;;;;;;7.44;92.50;101035.34;10452181;28;20091;-85
2023/12/02 01:21:02;;;;;;;0.95;0.95;;;;;;;7.62;93.79;101031.75;10438629;28;20092;-84
2023/12/02 01:26:05;;;;;;;0.00;0.00;;;;;;;7.38;93.38;101032.53;10459144;28;20037;-84
2023/12/02 01:31:07;;;;;;;0.00;0.00;;;;;;;7.78;93.59;101028.13;10425898;28;20045;-85
2023/12/02 01:36:13;;;;;;;1.25;1.15;;;;;;;9.71;91.83;101026.34;10438254;28;20045;-85
2023/12/02 01:41:15;;;;;;;0.22;0.22;;;;;;;9.95;89.93;101023.66;10442709;28;20045;-85
2023/12/02 01:46:17;;;;;;;2.65;1.25;;;;;;;7.92;92.26;101023.53;10434578;28;20068;-85
2023/12/02 01:51:19;;;;;;;0.43;0.43;;;;;;;9.50;90.16;101024.81;10478982;28;20041;-85
2023/12/02 01:56:21;;;;;;;0.00;0.00;;;;;;;8.89;89.37;101050.25;10446450;28;20102;-85
2023/12/02 02:01:23;;;;;;;0.17;0.17;;;;;;;7.78;94.19;101046.09;10462486;28;20049;-85
2023/12/02 02:06:25;;;;;;;0.10;0.10;;;;;;;8.31;93.59;101043.84;10462509;28;20094;-85
2023/12/02 02:11:28;;;;;;;0.10;0.10;;;;;;;9.61;89.20;101039.75;10462254;28;20170;-86
2023/12/02 02:16:30;;;;;;;0.30;0.30;;;;;;;7.28;92.61;101054.34;10470280;28;20067;-84
2023/12/02 02:21:32;;;;;;;0.85;0.55;;;;;;;9.86;89.86;101053.41;10470693;28;20044;-85
2023/12/02 02:26:33;;;;;;;0.05;0.05;;;;;;;8.44;90.83;101073.41;10469642;28;20044;-85
2023/12/02 02:31:35;;;;;;;2.03;0.85;;;;;;;9.46;89.56;101066.72;10469512;28;20072;-85
2023/12/02 02:36:37;;;;;;;0.25;0.25;;;;;;;7.85;94.45;101066.03;10486005;28;20072;-85
2023/12/02 02:41:39;;;;;;;0.30;0.30;;;;;;;10.38;89.89;101060.16;10485642;28;20084;-85
2023/12/02 02:46:41;;;;;;;0.73;0.32;;;;;;;9.25;89.03;101071.13;10469159;28;20044;-85
2023/12/02 02:51:43;;;;;;;1.25;0.88;;;;;;;7.84;92.50;101077.13;10484826;28;20084;-86
2023/12/02 02:56:44;;;;;;;0.10;0.10;;;;;;;7.28;94.42;101085.09;10485609;28;20039;-85
2023/12/02 03:01:48;;;;;;;0.98;0.52;;;;;;;10.72;89.13;101066.25;10485116;28;20098;-85
2023/12/02 03:06:50;;;;;;;0.57;0.57;;;;;;;9.07;89.11;101085.09;10468843;28;20046;-85
2023/12/02 03:11:52;;;;;;;0.40;0.40;;;;;;;9.34;90.92;101081.75;10485158;28;20052;-85
2023/12/02 03:16:54;;;;;;;0.15;0.15;;;;;;;6.78;93.31;101081.22;10468976;28;20053;-86
2023/12/02 03:21:55;;;;;;;0.98;0.95;;;;;;;7.80;92.27;101085.47;10485838;28;20044;-85
2023/12/02 03:26:57;;;;;;;0.17;0.17;;;;;;;8.30;91.18;101079.72;10468849;28;20056;-86
2023/12/02 03:31:59;;;;;;;0.85;0.55;;;;;;;9.81;89.30;101071.25;10484570;28;20056;-86
2023/12/02 03:37:02;;;;;;;0.68;0.25;;;;;;;10.93;86.04;101080.56;10468102;28;20476;-86
2023/12/02 03:42:05;;;;;;;4.47;1.77;;;;;;;10.09;86.58;101077.25;10484369;28;20063;-86
2023/12/02 03:47:07;;;;;;;0.00;0.00;;;;;;;9.17;88.02;101087.19;10467406;28;20044;-86
2023/12/02 03:52:09;;;;;;;0.00;0.00;;;;;;;9.58;88.33;101088.50;10458842;28;20091;-86
2023/12/02 03:57:11;;;;;;;0.00;0.00;;;;;;;9.39;89.37;101098.19;10442105;28;20132;-86
2023/12/02 04:02:12;;;;;;;0.10;0.10;;;;;;;9.32;89.59;101102.25;10440682;28;20091;-86
2023/12/02 04:07:14;;;;;;;0.63;0.63;;;;;;;9.20;89.98;101097.53;10424485;28;20053;-85
2023/12/02 04:12:16;;;;;;;0.30;0.30;;;;;;;8.21;90.92;101098.19;10424731;28;20049;-86
2023/12/02 04:17:18;;;;;;;0.52;0.52;;;;;;;8.93;89.59;101101.72;10476123;28;20083;-86
2023/12/02 04:22:20;;;;;;;0.20;0.20;;;;;;;9.35;89.58;101112.66;10481894;28;20119;-86
2023/12/02 04:27:22;;;;;;;0.57;0.57;;;;;;;10.11;87.63;101111.66;10467717;28;20083;-86
2023/12/02 04:32:23;;;;;;;0.52;0.52;;;;;;;9.59;86.57;101121.13;10424311;28;20158;-86
2023/12/02 04:37:25;;;;;;;0.00;0.00;;;;;;;9.56;87.43;101123.63;10423858;28;20450;-87
2023/12/02 04:42:27;;;;;;;0.00;0.00;;;;;;;9.97;87.64;101124.06;10456865;28;20094;-87
2023/12/02 04:47:29;;;;;;;0.00;0.00;;;;;;;9.97;86.89;101124.97;10456882;28;20043;-86
2023/12/02 04:52:32;;;;;;;0.32;0.32;;;;;;;8.70;88.86;101124.88;10440115;28;20049;-86
2023/12/02 04:57:33;;;;;;;0.00;0.00;;;;;;;9.96;88.00;101127.47;10456524;28;20045;-86
2023/12/02 05:02:35;;;;;;;0.10;0.05;;;;;;;9.56;88.21;101139.03;10456827;28;20411;-86
2023/12/02 05:07:37;;;;;;;0.10;0.10;;;;;;;10.14;89.26;101138.38;10456667;28;20392;-86
2023/12/02 05:12:40;;;;;;;0.30;0.30;;;;;;;8.87;89.46;101134.09;10456773;28;20048;-86
2023/12/02 05:17:43;;;;;;;0.45;0.45;;;;;;;8.87;91.13;101133.19;10455553;28;20397;-86
2023/12/02 05:22:45;;;;;;;0.10;0.10;;;;;;;8.21;91.27;101139.25;10464381;28;20044;-85
2023/12/02 05:27:50;;;;;;;0.50;0.50;;;;;;;8.63;91.79;101138.31;10452494;28;20075;-85
2023/12/02 05:32:52;;;;;;;2.38;1.20;;;;;;;8.48;93.71;101141.19;10463831;28;20045;-85
2023/12/02 05:37:54;;;;;;;0.00;0.00;;;;;;;8.35;91.54;101138.09;10442279;28;20044;-86
2023/12/02 05:42:55;;;;;;;0.10;0.10;;;;;;;9.60;89.77;101143.47;10465822;28;20491;-86
2023/12/02 05:47:57;;;;;;;0.88;0.65;;;;;;;9.36;90.41;101137.53;10444995;28;20403;-86
2023/12/02 05:52:59;;;;;;;0.00;0.00;;;;;;;8.86;90.75;101145.19;10455759;28;20483;-85
2023/12/02 05:58:01;;;;;;;0.68;0.38;;;;;;;9.48;90.05;101159.34;10428593;28;20052;-86
2023/12/02 06:03:03;;;;;;;0.25;0.25;;;;;;;9.99;89.27;101163.63;10423158;28;20052;-86
2023/12/02 06:08:05;;;;;;;0.00;0.00;;;;;;;9.28;88.30;101172.38;10440400;28;20049;-87
2023/12/02 06:13:07;;;;;;;0.30;0.30;;;;;;;10.50;87.72;101166.94;10423355;28;20388;-87
2023/12/02 06:18:08;;;;;;;0.20;0.20;;;;;;;10.56;87.40;101161.97;10439749;28;20124;-87
2023/12/02 06:23:10;;;;;;;0.40;0.40;;;;;;;9.44;88.31;101178.94;10439550;28;20049;-87
2023/12/02 06:28:12;;;;;;;0.20;0.20;;;;;;;8.89;90.45;101167.53;10427592;28;20055;-87
2023/12/02 06:33:14;;;;;;;0.20;0.20;;;;;;;9.04;90.53;101180.09;10497240;28;20044;-87
2023/12/02 06:38:16;;;;;;;0.00;0.00;;;;;;;8.65;91.65;101167.50;10488893;28;20495;-86
2023/12/02 06:43:18;;;;;;;0.10;0.10;;;;;;;8.69;89.84;101179.63;10489864;28;20052;-87
2023/12/02 06:48:20;;;;;;;1.00;1.00;;;;;;;8.41;92.06;101168.28;10464162;28;20396;-87
2023/12/02 06:53:21;;;;;;;0.15;0.15;;;;;;;8.50;92.43;101170.34;10463788;28;20102;-87
2023/12/02 06:58:23;;;;;;;0.47;0.47;;;;;;;8.83;90.81;101182.75;10463693;28;20086;-87
2023/12/02 07:03:25;;;;;;;0.20;0.20;;;;;;;8.51;92.27;101190.09;10463428;28;20048;-87
2023/12/02 07:08:27;;;;;;;0.63;0.60;;;;;;;9.41;89.15;101207.13;10446897;28;20049;-87
2023/12/02 07:13:29;;;;;;;0.38;0.38;;;;;;;9.96;87.65;101214.97;10433850;28;20045;-87
2023/12/02 07:18:31;;;;;;;0.55;0.55;;;;;;;9.10;89.79;101230.84;10446186;28;20048;-87
2023/12/02 07:23:33;;;;;;;0.00;0.00;;;;;;;9.50;89.24;101240.00;10429662;28;20140;-87
2023/12/02 07:28:35;;;;;;;0.05;0.05;;;;;;;9.15;89.43;101247.31;10445880;28;20119;-87
2023/12/02 07:33:37;;;;;;;3.30;0.98;;;;;;;9.63;90.00;101251.63;10428758;28;20582;-87
2023/12/02 07:38:40;;;;;;;0.93;0.88;;;;;;;9.21;89.95;101256.13;10461694;28;20078;-87
2023/12/02 07:43:42;;;;;;;0.35;0.35;;;;;;;9.00;90.43;101263.91;10444442;28;20153;-87
2023/12/02 07:48:44;;;;;;;0.00;0.00;;;;;;;9.46;90.17;101272.47;10443808;28;20053;-86
2023/12/02 07:53:46;;;;;;;0.03;0.03;;;;;;;9.55;91.02;101273.63;10439498;28;20051;-86
2023/12/02 07:58:48;;;;;;;0.00;0.00;;;;;;;9.71;90.76;101277.59;10428383;28;20068;-88
2023/12/02 08:03:50;;;;;;;1.08;0.73;;;;;;;8.61;91.85;101288.91;10428255;28;20055;-88
2023/12/02 08:08:53;;;;;;;0.63;0.30;;;;;;;8.40;92.68;101289.75;10427790;28;20048;-87
2023/12/02 08:13:56;;;;;;;0.38;0.25;;;;;;;9.02;93.12;101271.69;10443441;28;20080;-87
2023/12/02 08:18:58;;;;;;;2.38;1.08;;;;;;;9.72;93.05;101276.78;10419404;28;20549;-87
2023/12/02 08:24:00;;;;;;;0.00;0.00;;;;;;;9.46;93.11;101279.28;10435939;28;20063;-87
2023/12/02 08:29:02;;;;;;;0.40;0.40;;;;;;;9.32;91.96;101296.78;10456364;28;20487;-87
2023/12/02 08:34:04;;;;;;;0.30;0.30;;;;;;;9.75;91.67;101303.50;10436089;28;20484;-87
2023/12/02 08:39:16;;;;;;;0.38;0.38;;;;;;;9.43;92.93;101305.78;10428642;28;20488;-87
2023/12/02 08:44:18;;;;;;;0.00;0.00;;;;;;;9.38;92.21;101306.44;10423978;28;20049;-87
2023/12/02 08:49:21;;;;;;;0.30;0.30;;;;;;;8.85;93.40;101305.31;10443636;28;20075;-87
2023/12/02 08:54:22;;;;;;;0.30;0.30;;;;;;;9.57;94.37;101308.00;10439856;28;20048;-87
2023/12/02 08:59:25;;;;;;;1.65;0.63;;;;;;;9.00;92.82;101320.47;10424615;28;20072;-87
2023/12/02 09:04:28;;;;;;;0.30;0.20;;;;;;;9.60;93.08;101318.38;10445259;28;20078;-87
2023/12/02 09:09:30;;;;;;;0.00;0.00;;;;;;;9.19;92.10;101322.06;10442541;28;20124;-87
2023/12/02 09:14:32;;;;;;;0.47;0.47;;;;;;;9.31;94.80;101320.75;10425103;28;20408;-87
2023/12/02 09:19:37;;;;;;;0.00;0.00;;;;;;;8.97;94.09;101324.59;10445191;28;20095;-87
2023/12/02 09:24:40;;;;;;;1.75;0.45;;;;;;;10.40;93.05;101328.91;10441784;28;20451;-87
2023/12/02 09:29:42;;;;;;;0.25;0.25;;;;;;;9.20;93.76;101328.91;10452588;28;20435;-86
2023/12/02 09:35:00;;;;;;;1.95;1.25;;;;;;;9.40;93.54;101333.06;10439695;28;20484;-87
2023/12/02 09:40:28;;;;;;;0.00;0.00;;;;;;;9.05;93.27;101328.31;10465574;28;20047;-86
2023/12/02 09:45:39;;;;;;;0.05;0.05;;;;;;;10.53;92.55;101342.22;10426738;28;20397;-86
2023/12/02 09:50:54;;;;;;;;;;;;;;;9.00;94.02;101340.13;10422440;28;20041;-86
2023/12/02 09:56:06;;;;;;;1.65;0.80;;;;;;;8.84;96.09;101334.38;10438281;28;19927;-86
2023/12/02 10:01:24;;;;;;;0.32;0.32;;;;;;;9.26;94.31;101342.84;10455904;28;20040;-85
2023/12/02 10:06:38;;;;;;;0.43;0.43;;;;;;;9.11;93.92;101344.00;10444584;28;20564;-85
2023/12/02 10:17:25;;;;;;;0.22;0.22;;;;;;;9.61;94.19;101345.88;10466719;28;20036;-83
2023/12/02 10:22:32;;;;;;;0.90;0.57;;;;;;;9.43;94.17;101346.91;10447739;28;20045;-83
2023/12/02 10:27:36;;;;;;;0.30;0.20;;;;;;;9.15;96.13;101351.00;10460567;28;20045;-85
2023/12/02 10:32:53;;;;;;;0.95;0.95;;;;;;;9.03;96.38;101347.97;10443508;28;20110;-83
2023/12/02 10:38:13;;;;;;;0.90;0.73;;;;;;;9.65;95.29;101347.72;10444443;28;20053;-86
2023/12/02 10:43:30;;;;;;;3.22;0.98;;;;;;;8.84;94.31;101333.50;10444222;28;20049;-84
2023/12/02 10:48:33;;;;;;;0.00;0.00;;;;;;;10.12;95.67;101330.53;10443831;28;20064;-86
2023/12/02 10:53:37;;;;;;;1.98;1.17;;;;;;;10.92;93.94;101326.28;10433197;28;20498;-86
2023/12/02 10:58:43;;;;;;;0.10;0.10;;;;;;;10.38;91.12;101332.28;10426594;28;20037;-85
2023/12/02 11:03:52;;;;;;;0.43;0.43;;;;;;;10.91;94.11;101325.41;10447015;28;20135;-86
2023/12/02 11:08:59;;;;;;;0.07;0.07;;;;;;;11.32;91.55;101317.19;10424646;28;20053;-85
2023/12/02 11:14:02;;;;;;;0.20;0.20;;;;;;;11.74;91.47;101320.94;10443492;28;20058;-84
2023/12/02 11:19:29;;;;;;;2.25;0.73;;;;;;;11.14;92.04;101321.78;10442038;28;20092;-85
2023/12/02 11:24:52;;;;;;;1.67;0.85;;;;;;;10.63;92.47;101333.94;10455888;28;20055;-85
2023/12/02 11:30:15;;;;;;;0.10;0.10;;;;;;;10.92;91.69;101329.75;10411209;28;20052;-87
2023/12/02 11:35:27;;;;;;;1.85;1.17;;;;;;;10.02;94.01;101333.59;10442055;28;20052;-88
2023/12/02 11:40:36;;;;;;;0.20;0.20;;;;;;;11.06;93.25;101337.88;10447695;28;20133;-88
2023/12/02 11:45:42;;;;;;;0.10;0.10;;;;;;;11.42;93.09;101333.78;10453123;28;20049;-88
2023/12/02 11:50:56;;;;;;;0.10;0.10;;;;;;;11.40;92.38;101340.59;10461115;28;20083;-86
2023/12/02 11:56:18;;;;;;;0.28;0.28;;;;;;;11.72;93.21;101349.31;10439883;28;20053;-88
2023/12/02 12:01:52;;;;;;;0.13;0.13;;;;;;;10.68;93.49;101353.03;10443969;28;20507;-87
2023/12/02 12:07:17;;;;;;;1.60;0.75;;;;;;;11.24;93.11;101347.03;10409610;28;20048;-87
2023/12/02 12:12:21;;;;;;;0.50;0.30;;;;;;;11.97;92.87;101350.00;10438013;28;20067;-87
2023/12/02 12:17:23;;;;;;;0.40;0.40;;;;;;;11.16;94.32;101346.81;10465925;28;20055;-87
2023/12/02 12:22:28;;;;;;;0.10;0.10;;;;;;;10.78;91.65;101360.22;10440160;28;20114;-85
2023/12/02 12:27:29;;;;;;;0.65;0.65;;;;;;;10.73;94.24;101361.78;10418475;28;20068;-86
2023/12/02 12:32:31;;;;;;;0.20;0.20;;;;;;;11.23;94.04;101358.16;10443348;28;20068;-85
2023/12/02 12:37:35;;;;;;;0.10;0.10;;;;;;;11.01;94.24;101362.66;10447924;28;20091;-87
2023/12/02 12:42:48;;;;;;;0.88;0.40;;;;;;;11.17;95.00;101368.28;10454663;28;20059;-85
2023/12/02 12:47:53;;;;;;;0.22;0.22;;;;;;;11.50;94.62;101362.41;10444329;28;20052;-85
2023/12/02 12:53:01;;;;;;;4.40;2.08;;;;;;;11.57;94.98;101374.66;10446201;28;20552;-85
2023/12/02 12:58:07;;;;;;;1.85;0.73;;;;;;;10.35;95.20;101389.69;10421998;28;20491;-84
2023/12/02 13:03:31;;;;;;;0.22;0.22;;;;;;;10.99;97.17;101390.09;10425107;28;20056;-85
2023/12/02 13:08:43;;;;;;;1.55;1.02;;;;;;;10.74;96.40;101384.16;10445895;28;20037;-84
2023/12/02 13:14:02;;;;;;;0.68;0.68;;;;;;;11.10;97.44;101382.69;10421967;28;20045;-85
2023/12/02 13:19:07;;;;;;;0.63;0.63;;;;;;;11.47;97.01;101385.53;10427635;28;20044;-84
2023/12/02 13:24:14;;;;;;;0.25;0.20;;;;;;;10.61;97.26;101402.63;10449286;28;20052;-84
2023/12/02 13:29:21;;;;;;;0.45;0.45;;;;;;;10.39;98.12;101391.56;10432105;28;20044;-84
2023/12/02 13:34:34;;;;;;;0.95;0.90;;;;;;;10.86;98.60;101387.94;10453443;28;20484;-84
2023/12/02 13:39:39;;;;;;;1.23;0.47;;;;;;;11.30;97.15;101385.03;10460696;28;20040;-84
2023/12/02 13:44:47;;;;;;;1.38;0.95;;;;;;;10.28;98.74;101387.72;10436280;28;20166;-84
2023/12/02 13:49:59;;;;;;;0.00;0.00;;;;;;;10.30;97.96;101401.53;10452050;28;20460;-84
2023/12/02 13:55:23;;;;;;;0.25;0.25;;;;;;;10.85;99.26;101399.09;10427212;28;20495;-84
2023/12/02 14:00:50;;;;;;;1.55;1.25;;;;;;;11.05;98.53;101400.63;10439863;28;20156;-83
2023/12/02 14:05:58;;;;;;;0.47;0.47;;;;;;;10.46;98.61;101401.25;10436524;28;20412;-83
2023/12/02 14:11:02;;;;;;;0.10;0.10;;;;;;;10.58;98.41;101408.53;10443528;28;20492;-84
2023/12/02 14:16:13;;;;;;;0.90;0.90;;;;;;;10.82;100.00;101406.72;10462429;28;20079;-84
2023/12/02 14:21:27;;;;;;;0.68;0.55;;;;;;;10.78;98.12;101406.63;10427714;28;20033;-84
2023/12/02 14:27:26;;;;;;;2.38;1.08;;;;;;;11.40;96.75;101418.91;10432105;28;20044;-84
2023/12/02 14:32:34;;;;;;;0.17;0.17;;;;;;;11.76;97.41;101412.22;10326182;28;20061;-84
2023/12/02 14:37:54;;;;;;;1.10;0.77;;;;;;;10.83;99.00;101423.94;10425657;28;20041;-84
2023/12/02 14:43:27;;;;;;;0.70;0.70;;;;;;;10.67;99.21;101433.75;10445175;28;20106;-84
2023/12/02 14:48:29;;;;;;;0.10;0.10;;;;;;;12.01;96.64;101431.91;10448950;28;20041;-84
2023/12/02 14:53:36;;;;;;;0.35;0.35;;;;;;;11.62;97.46;101453.09;10428936;28;20484;-84
2023/12/02 14:58:42;;;;;;;0.10;0.10;;;;;;;11.09;99.26;101464.34;10451716;28;20041;-83
2023/12/02 15:04:16;;;;;;;6.72;1.35;;;;;;;10.89;98.42;101467.97;10453685;28;20408;-84
2023/12/02 15:09:25;;;;;;;1.17;1.02;;;;;;;11.93;98.08;101464.34;10429245;28;20549;-84
2023/12/02 15:14:27;;;;;;;1.33;0.85;;;;;;;11.65;96.09;101485.84;10462166;28;20056;-84
2023/12/02 15:19:30;;;;;;;0.57;0.57;;;;;;;12.88;94.99;101478.16;10461879;28;20128;-87
2023/12/02 15:24:32;;;;;;;0.63;0.63;;;;;;;11.18;97.67;101496.44;10447612;28;20510;-84
2023/12/02 15:29:34;;;;;;;5.50;1.35;;;;;;;11.37;98.41;101503.06;10445579;28;20045;-83
2023/12/02 15:34:36;;;;;;;0.10;0.10;;;;;;;11.62;98.87;101507.28;10455420;28;20484;-84
2023/12/02 15:39:39;;;;;;;0.57;0.57;;;;;;;12.32;97.30;101504.22;10445357;28;20045;-84
2023/12/02 15:44:45;;;;;;;0.00;0.00;;;;;;;11.97;96.96;101515.25;10432146;28;20110;-84
2023/12/02 15:49:47;;;;;;;1.27;1.05;;;;;;;11.70;97.40;101526.47;10430815;28;20041;-83
2023/12/02 15:54:49;;;;;;;0.25;0.25;;;;;;;10.64;100.00;101536.69;10409377;28;20059;-84
2023/12/02 15:59:51;;;;;;;0.85;0.68;;;;;;;10.72;100.00;101535.28;10437521;28;20200;-83
2023/12/02 16:04:54;;;;;;;0.68;0.68;;;;;;;11.17;100.00;101538.50;10428331;28;20543;-83
2023/12/02 16:09:56;;;;;;;0.43;0.40;;;;;;;10.85;100.00;101546.00;10419282;28;20055;-83
2023/12/02 16:14:58;;;;;;;0.57;0.57;;;;;;;9.98;100.00;101546.25;10426233;28;20121;-82
2023/12/02 16:20:00;;;;;;;0.10;0.10;;;;;;;10.99;100.00;101549.94;10428093;28;20044;-81
2023/12/02 16:25:03;;;;;;;0.75;0.75;;;;;;;10.98;100.00;101552.47;10444101;28;20098;-81
2023/12/02 16:30:06;;;;;;;0.45;0.45;;;;;;;10.92;100.00;101558.28;10433147;28;20055;-82
2023/12/02 16:35:08;;;;;;;1.30;1.08;;;;;;;10.71;100.00;101569.59;10439746;28;20053;-82
2023/12/02 16:40:11;;;;;;;0.17;0.17;;;;;;;10.99;100.00;101575.72;10441691;28;20067;-81
2023/12/02 16:45:20;;;;;;;2.78;2.20;;;;;;;10.94;100.00;101567.84;10419787;28;20074;-82
2023/12/02 16:50:29;;;;;;;0.20;0.20;;;;;;;11.34;100.00;101578.66;10438276;28;20103;-81
2023/12/02 16:55:33;;;;;;;0.38;0.38;;;;;;;10.72;100.00;101581.66;10432820;28;20075;-83
2023/12/02 17:00:38;;;;;;;5.82;2.05;;;;;;;11.59;100.00;101584.59;10441335;28;20040;-82
2023/12/02 17:05:40;;;;;;;0.63;0.52;;;;;;;11.32;100.00;101590.63;10445941;28;20087;-82
2023/12/02 17:10:42;;;;;;;0.65;0.47;;;;;;;11.34;99.08;101594.13;10438760;28;20072;-82
2023/12/02 17:15:43;;;;;;;0.28;0.28;;;;;;;10.52;100.00;101608.41;10419492;28;20140;-82
2023/12/02 17:20:45;;;;;;;1.42;1.33;;;;;;;10.71;100.00;101618.56;10436419;28;20041;-82
2023/12/02 17:25:54;;;;;;;0.63;0.63;;;;;;;11.52;99.64;101623.94;10442885;28;20047;-80
2023/12/02 17:30:56;;;;;;;2.08;1.45;;;;;;;11.43;99.52;101620.22;10432308;28;20135;-82
2023/12/02 17:35:57;;;;;;;1.73;1.60;;;;;;;9.95;100.00;101625.06;10448441;28;20061;-82
2023/12/02 17:40:59;;;;;;;0.20;0.20;;;;;;;10.45;100.00;101639.09;10422582;28;20132;-82
2023/12/02 17:46:01;;;;;;;0.20;0.20;;;;;;;10.41;100.00;101639.78;10448911;28;20053;-81
2023/12/02 17:51:03;;;;;;;0.35;0.35;;;;;;;9.96;100.00;101639.69;10427118;28;20053;-82
2023/12/02 17:56:06;;;;;;;0.32;0.32;;;;;;;11.31;100.00;101632.72;10439415;28;20563;-81
2023/12/02 18:01:08;;;;;;;0.52;0.52;;;;;;;11.06;100.00;101634.41;10441867;28;20120;-82
2023/12/02 18:06:10;;;;;;;0.30;0.30;;;;;;;10.23;100.00;101641.63;10433589;28;20890;-81
2023/12/02 18:11:12;;;;;;;1.58;0.95;;;;;;;10.50;100.00;101636.66;10418524;28;20052;-82
2023/12/02 18:16:14;;;;;;;0.45;0.45;;;;;;;11.23;100.00;101636.72;10425155;28;20052;-82
2023/12/02 18:21:16;;;;;;;1.30;1.02;;;;;;;10.09;100.00;101638.50;10423905;28;20127;-81
2023/12/02 18:26:18;;;;;;;6.07;0.68;;;;;;;11.70;100.00;101644.31;10428697;28;20053;-81
2023/12/02 18:31:20;;;;;;;0.80;0.70;;;;;;;11.35;100.00;101649.19;10440573;28;20541;-82
2023/12/02 18:36:21;;;;;;;0.88;0.88;;;;;;;11.07;100.00;101651.66;10448899;28;20094;-81
2023/12/02 18:41:23;;;;;;;0.25;0.25;;;;;;;10.57;100.00;101645.53;10445543;28;20048;-81
2023/12/02 18:46:26;;;;;;;0.13;0.13;;;;;;;11.11;100.00;101661.28;10440052;28;20509;-81
2023/12/02 18:51:28;;;;;;;0.88;0.73;;;;;;;9.77;100.00;101663.81;10446574;28;20128;-81
2023/12/02 18:56:30;;;;;;;0.38;0.38;;;;;;;10.23;100.00;101669.94;10467459;28;20041;-82
2023/12/02 19:01:32;;;;;;;0.20;0.20;;;;;;;11.03;100.00;101649.81;10421693;28;20571;-81
2023/12/02 19:06:34;;;;;;;0.20;0.20;;;;;;;10.66;100.00;101663.00;10456837;28;20446;-82
2023/12/02 19:11:36;;;;;;;0.30;0.30;;;;;;;10.89;100.00;101657.03;10424631;28;20840;-82
2023/12/02 19:16:39;;;;;;;4.03;1.35;;;;;;;11.51;100.00;101663.47;10431750;28;20068;-82
2023/12/02 19:21:41;;;;;;;0.52;0.52;;;;;;;10.22;100.00;101666.47;10439525;28;20120;-81
2023/12/02 19:26:43;;;;;;;1.70;1.30;;;;;;;11.39;100.00;101657.06;10441071;28;20048;-82
2023/12/02 19:31:45;;;;;;;0.10;0.10;;;;;;;9.92;100.00;101666.16;10425797;28;20048;-81
2023/12/02 19:36:47;;;;;;;2.70;1.77;;;;;;;10.45;100.00;101675.16;10445835;28;20045;-82
2023/12/02 19:41:49;;;;;;;0.95;0.93;;;;;;;11.21;100.00;101674.47;10449175;28;20064;-82
2023/12/02 19:46:56;;;;;;;0.93;0.73;;;;;;;11.94;100.00;101674.38;10467198;28;20510;-81
2023/12/02 19:51:59;;;;;;;0.40;0.40;;;;;;;10.82;100.00;101674.81;10449957;28;20484;-82
2023/12/02 19:57:02;;;;;;;1.23;1.13;;;;;;;11.88;100.00;101677.63;10441734;28;20163;-81
2023/12/02 20:02:05;;;;;;;0.73;0.35;;;;;;;10.81;100.00;101683.34;10436148;28;20052;-81
2023/12/02 20:07:07;;;;;;;1.88;1.67;;;;;;;10.70;100.00;101686.38;10431171;28;20059;-81
2023/12/02 20:12:09;;;;;;;2.38;1.55;;;;;;;10.99;100.00;101683.16;10432222;28;20048;-81
2023/12/02 20:17:13;;;;;;;1.50;0.80;;;;;;;10.65;100.00;101687.91;10437816;28;20083;-81
2023/12/02 20:22:15;;;;;;;0.75;0.75;;;;;;;11.27;100.00;101700.50;10439206;28;20082;-82
2023/12/02 20:27:17;;;;;;;1.42;1.33;;;;;;;11.77;100.00;101695.31;10429922;28;20086;-81
2023/12/02 20:32:19;;;;;;;2.40;1.23;;;;;;;11.83;100.00;101703.31;10438117;28;20080;-81
2023/12/02 20:37:21;;;;;;;0.22;0.22;;;;;;;12.10;100.00;101715.41;10422021;28;20419;-81
2023/12/02 20:42:23;;;;;;;0.00;0.00;;;;;;;11.48;100.00;101721.00;10441786;28;20491;-81
2023/12/02 20:47:25;;;;;;;2.60;2.40;;;;;;;11.88;100.00;101721.50;10442099;28;20083;-81
2023/12/02 20:52:26;;;;;;;1.17;1.08;;;;;;;11.82;100.00;101714.47;10444699;28;20091;-81
2023/12/02 20:57:28;;;;;;;0.70;0.70;;;;;;;12.12;99.56;101725.78;10439488;28;20139;-81
2023/12/02 21:02:30;;;;;;;0.00;0.00;;;;;;;11.76;100.00;101722.00;10446875;28;20048;-81
2023/12/02 21:07:32;;;;;;;0.32;0.32;;;;;;;11.70;99.47;101722.66;10447552;28;20588;-82
2023/12/02 21:12:35;;;;;;;0.22;0.22;;;;;;;11.56;99.70;101729.03;10418017;28;20044;-82
2023/12/02 21:17:37;;;;;;;0.55;0.55;;;;;;;11.29;100.00;101729.81;10434637;28;20415;-82
2023/12/02 21:22:40;;;;;;;0.50;0.50;;;;;;;10.39;100.00;101729.00;10444434;28;20041;-81
2023/12/02 21:27:45;;;;;;;3.25;2.60;;;;;;;10.40;100.00;101728.19;10427292;28;20102;-82
2023/12/02 21:32:47;;;;;;;0.60;0.60;;;;;;;11.92;100.00;101728.53;10435715;28;20403;-81
2023/12/02 21:37:49;;;;;;;1.75;0.93;;;;;;;12.37;100.00;101738.66;10430845;28;20059;-82
2023/12/02 21:42:51;;;;;;;10.13;1.38;;;;;;;12.24;100.00;101731.34;10422270;28;20041;-81
2023/12/02 21:47:53;;;;;;;0.08;0.08;;;;;;;10.05;100.00;101740.47;10440173;28;20041;-81
2023/12/02 21:52:55;;;;;;;0.60;0.52;;;;;;;11.20;100.00;101729.50;10431345;28;20522;-82
2023/12/02 21:57:57;;;;;;;1.08;0.70;;;;;;;11.07;100.00;101739.34;10424784;28;20041;-81
2023/12/02 22:03:03;;;;;;;1.75;1.08;;;;;;;11.10;100.00;101744.63;10433095;28;20036;-81
2023/12/02 22:08:05;;;;;;;0.20;0.20;;;;;;;10.81;100.00;101745.22;10455672;28;20143;-82
2023/12/02 22:13:18;;;;;;;2.67;1.88;;;;;;;10.28;100.00;101748.28;10439097;28;20111;-82
2023/12/02 22:18:20;;;;;;;0.40;0.40;;;;;;;10.10;100.00;101744.13;10464637;28;20045;-82
2023/12/02 22:23:22;;;;;;;0.17;0.17;;;;;;;11.16;100.00;101748.22;10454044;28;20128;-82
2023/12/02 22:28:28;;;;;;;0.52;0.52;;;;;;;10.92;100.00;101760.28;10447988;28;20052;-82
2023/12/02 22:33:31;;;;;;;0.10;0.10;;;;;;;10.90;100.00;101763.63;10429262;28;20576;-82
2023/12/02 22:38:37;;;;;;;4.45;1.13;;;;;;;12.51;99.05;101761.47;10446673;28;20048;-82
2023/12/02 22:43:46;;;;;;;0.22;0.22;;;;;;;12.37;97.70;101773.94;10445325;28;20140;-81
2023/12/02 22:48:50;;;;;;;0.65;0.65;;;;;;;12.20;97.96;101786.31;10446439;28;20050;-82
2023/12/02 22:53:54;;;;;;;1.58;1.38;;;;;;;11.32;99.95;101785.81;10455523;28;20080;-82
2023/12/02 22:58:57;;;;;;;0.38;0.30;;;;;;;11.47;100.00;101790.66;10448277;28;20087;-81
2023/12/02 23:04:21;;;;;;;0.75;0.35;;;;;;;11.71;100.00;101791.53;10426152;28;20044;-81
2023/12/02 23:09:44;;;;;;;0.45;0.38;;;;;;;12.06;100.00;101788.47;10439307;28;20098;-81
2023/12/02 23:14:57;;;;;;;0.47;0.45;;;;;;;12.19;98.73;101792.31;10452172;28;20037;-81
2023/12/02 23:20:02;;;;;;;5.20;1.60;;;;;;;11.87;99.50;101786.91;10456189;28;20036;-81
2023/12/02 23:25:10;;;;;;;0.50;0.50;;;;;;;13.19;96.10;101794.56;10453758;28;20049;-81
2023/12/02 23:30:13;;;;;;;1.88;1.17;;;;;;;12.98;96.27;101795.69;10440847;28;20131;-81